sensor_id;sensor_type;location;lat;lon;timestamp;pressure;altitude;pressure_sealevel;temperature;humidity
75555;BME280;66087;53.126;17.960;2023-04-28T00:00:43;101272.97;;;2.75;60.94
75555;BME280;66087;53.126;17.960;2023-04-28T00:03:18;101278.65;;;2.73;61.62
75555;BME280;66087;53.126;17.960;2023-04-28T00:05:43;101273.48;;;2.67;61.86
75555;BME280;66087;53.126;17.960;2023-04-28T00:08:09;101278.55;;;2.60;61.94
75555;BME280;66087;53.126;17.960;2023-04-28T00:10:36;101276.46;;;2.54;62.07
75555;BME280;66087;53.126;17.960;2023-04-28T00:13:01;101279.16;;;2.51;61.82
75555;BME280;66087;53.126;17.960;2023-04-28T00:15:28;101278.05;;;2.50;61.80
75555;BME280;66087;53.126;17.960;2023-04-28T00:17:55;101279.49;;;2.49;62.29
75555;BME280;66087;53.126;17.960;2023-04-28T00:20:21;101279.73;;;2.47;62.58
75555;BME280;66087;53.126;17.960;2023-04-28T00:22:47;101274.34;;;2.43;62.10
75555;BME280;66087;53.126;17.960;2023-04-28T00:25:15;101277.47;;;2.45;61.97
75555;BME280;66087;53.126;17.960;2023-04-28T00:27:41;101274.68;;;2.48;62.07
75555;BME280;66087;53.126;17.960;2023-04-28T00:30:07;101272.49;;;2.46;63.12
75555;BME280;66087;53.126;17.960;2023-04-28T00:32:34;101276.30;;;2.40;63.19
75555;BME280;66087;53.126;17.960;2023-04-28T00:35:00;101277.66;;;2.32;63.45
75555;BME280;66087;53.126;17.960;2023-04-28T00:37:26;101277.83;;;2.23;63.63
75555;BME280;66087;53.126;17.960;2023-04-28T00:39:54;101283.48;;;2.17;63.40
75555;BME280;66087;53.126;17.960;2023-04-28T00:42:22;101282.74;;;2.16;63.33
75555;BME280;66087;53.126;17.960;2023-04-28T00:44:48;101282.70;;;2.17;63.91
75555;BME280;66087;53.126;17.960;2023-04-28T00:47:16;101287.80;;;2.18;64.16
75555;BME280;66087;53.126;17.960;2023-04-28T00:49:44;101284.63;;;2.17;64.28
75555;BME280;66087;53.126;17.960;2023-04-28T00:52:10;101281.70;;;2.14;65.02
75555;BME280;66087;53.126;17.960;2023-04-28T00:54:36;101283.89;;;2.11;65.15
75555;BME280;66087;53.126;17.960;2023-04-28T00:57:02;101279.84;;;2.06;64.33
75555;BME280;66087;53.126;17.960;2023-04-28T00:59:30;101278.08;;;2.06;63.91
75555;BME280;66087;53.126;17.960;2023-04-28T01:01:56;101276.47;;;2.06;64.16
75555;BME280;66087;53.126;17.960;2023-04-28T01:04:22;101274.27;;;2.02;64.30
75555;BME280;66087;53.126;17.960;2023-04-28T01:06:50;101273.00;;;1.96;65.07
75555;BME280;66087;53.126;17.960;2023-04-28T01:09:18;101274.73;;;1.88;64.65
75555;BME280;66087;53.126;17.960;2023-04-28T01:11:44;101276.16;;;1.85;65.00
75555;BME280;66087;53.126;17.960;2023-04-28T01:14:15;101275.34;;;1.83;65.40
75555;BME280;66087;53.126;17.960;2023-04-28T01:16:41;101279.13;;;1.79;65.00
75555;BME280;66087;53.126;17.960;2023-04-28T01:19:14;101280.63;;;1.76;64.85
75555;BME280;66087;53.126;17.960;2023-04-28T01:21:42;101278.92;;;1.71;64.32
75555;BME280;66087;53.126;17.960;2023-04-28T01:24:18;101272.02;;;1.69;64.38
75555;BME280;66087;53.126;17.960;2023-04-28T01:26:44;101274.61;;;1.68;64.59
75555;BME280;66087;53.126;17.960;2023-04-28T01:29:11;101272.91;;;1.67;64.82
75555;BME280;66087;53.126;17.960;2023-04-28T01:31:37;101274.02;;;1.66;64.80
75555;BME280;66087;53.126;17.960;2023-04-28T01:34:03;101274.63;;;1.64;64.70
75555;BME280;66087;53.126;17.960;2023-04-28T01:36:29;101273.34;;;1.62;65.13
75555;BME280;66087;53.126;17.960;2023-04-28T01:38:57;101274.77;;;1.61;64.75
75555;BME280;66087;53.126;17.960;2023-04-28T01:41:24;101270.73;;;1.64;64.62
75555;BME280;66087;53.126;17.960;2023-04-28T01:43:50;101270.54;;;1.65;64.95
75555;BME280;66087;53.126;17.960;2023-04-28T01:46:17;101270.10;;;1.66;64.41
75555;BME280;66087;53.126;17.960;2023-04-28T01:48:43;101269.01;;;1.63;64.76
75555;BME280;66087;53.126;17.960;2023-04-28T01:51:09;101266.76;;;1.55;64.75
75555;BME280;66087;53.126;17.960;2023-04-28T01:53:37;101270.23;;;1.49;65.47
75555;BME280;66087;53.126;17.960;2023-04-28T01:56:03;101271.23;;;1.44;65.42
75555;BME280;66087;53.126;17.960;2023-04-28T01:58:30;101272.15;;;1.40;65.25
75555;BME280;66087;53.126;17.960;2023-04-28T02:00:55;101274.25;;;1.39;65.50
75555;BME280;66087;53.126;17.960;2023-04-28T02:03:21;101271.19;;;1.36;65.68
75555;BME280;66087;53.126;17.960;2023-04-28T02:05:47;101273.70;;;1.36;64.97
75555;BME280;66087;53.126;17.960;2023-04-28T02:08:14;101270.92;;;1.40;64.61
75555;BME280;66087;53.126;17.960;2023-04-28T02:10:40;101266.63;;;1.44;65.22
75555;BME280;66087;53.126;17.960;2023-04-28T02:13:06;101266.15;;;1.44;64.86
75555;BME280;66087;53.126;17.960;2023-04-28T02:15:32;101263.83;;;1.43;64.73
75555;BME280;66087;53.126;17.960;2023-04-28T02:17:58;101261.71;;;1.46;64.81
75555;BME280;66087;53.126;17.960;2023-04-28T02:20:25;101266.44;;;1.53;66.89
75555;BME280;66087;53.126;17.960;2023-04-28T02:22:51;101268.96;;;1.50;65.42
75555;BME280;66087;53.126;17.960;2023-04-28T02:25:17;101269.76;;;1.40;65.37
75555;BME280;66087;53.126;17.960;2023-04-28T02:27:43;101269.42;;;1.32;65.61
75555;BME280;66087;53.126;17.960;2023-04-28T02:30:10;101271.13;;;1.28;65.61
75555;BME280;66087;53.126;17.960;2023-04-28T02:32:36;101270.65;;;1.26;65.43
75555;BME280;66087;53.126;17.960;2023-04-28T02:35:02;101267.46;;;1.24;65.33
75555;BME280;66087;53.126;17.960;2023-04-28T02:37:28;101267.31;;;1.26;64.83
75555;BME280;66087;53.126;17.960;2023-04-28T02:39:54;101268.29;;;1.30;65.02
75555;BME280;66087;53.126;17.960;2023-04-28T02:42:19;101272.73;;;1.33;65.21
75555;BME280;66087;53.126;17.960;2023-04-28T02:44:45;101272.48;;;1.32;65.38
75555;BME280;66087;53.126;17.960;2023-04-28T02:47:11;101274.63;;;1.30;65.30
75555;BME280;66087;53.126;17.960;2023-04-28T02:49:37;101273.42;;;1.26;65.16
75555;BME280;66087;53.126;17.960;2023-04-28T02:52:04;101273.05;;;1.26;65.42
75555;BME280;66087;53.126;17.960;2023-04-28T02:54:30;101273.60;;;1.25;65.32
75555;BME280;66087;53.126;17.960;2023-04-28T02:56:58;101268.70;;;1.23;65.20
75555;BME280;66087;53.126;17.960;2023-04-28T02:59:24;101268.89;;;1.23;65.23
75555;BME280;66087;53.126;17.960;2023-04-28T03:01:52;101266.14;;;1.26;65.31
75555;BME280;66087;53.126;17.960;2023-04-28T03:04:17;101261.67;;;1.29;65.27
75555;BME280;66087;53.126;17.960;2023-04-28T03:06:44;101260.75;;;1.31;65.39
75555;BME280;66087;53.126;17.960;2023-04-28T03:09:10;101264.33;;;1.29;65.87
75555;BME280;66087;53.126;17.960;2023-04-28T03:11:37;101261.75;;;1.23;65.99
75555;BME280;66087;53.126;17.960;2023-04-28T03:14:04;101262.73;;;1.19;65.68
75555;BME280;66087;53.126;17.960;2023-04-28T03:16:30;101262.31;;;1.22;65.88
75555;BME280;66087;53.126;17.960;2023-04-28T03:18:58;101263.50;;;1.27;65.94
75555;BME280;66087;53.126;17.960;2023-04-28T03:21:24;101264.48;;;1.29;65.80
75555;BME280;66087;53.126;17.960;2023-04-28T03:23:52;101264.12;;;1.29;66.21
75555;BME280;66087;53.126;17.960;2023-04-28T03:26:19;101263.48;;;1.31;66.44
75555;BME280;66087;53.126;17.960;2023-04-28T03:28:46;101264.67;;;1.25;66.28
75555;BME280;66087;53.126;17.960;2023-04-28T03:31:13;101264.16;;;1.20;66.75
75555;BME280;66087;53.126;17.960;2023-04-28T03:33:39;101267.64;;;1.16;66.77
75555;BME280;66087;53.126;17.960;2023-04-28T03:36:07;101270.56;;;1.12;66.89
75555;BME280;66087;53.126;17.960;2023-04-28T03:38:33;101268.59;;;1.11;66.70
75555;BME280;66087;53.126;17.960;2023-04-28T03:41:00;101270.85;;;1.14;67.12
75555;BME280;66087;53.126;17.960;2023-04-28T03:43:36;101275.03;;;1.17;67.06
75555;BME280;66087;53.126;17.960;2023-04-28T03:46:10;101278.03;;;1.18;67.03
75555;BME280;66087;53.126;17.960;2023-04-28T03:48:37;101279.09;;;1.17;67.05
75555;BME280;66087;53.126;17.960;2023-04-28T03:51:03;101273.37;;;1.22;67.19
75555;BME280;66087;53.126;17.960;2023-04-28T03:53:30;101274.30;;;1.25;66.95
75555;BME280;66087;53.126;17.960;2023-04-28T03:55:56;101275.06;;;1.29;66.87
75555;BME280;66087;53.126;17.960;2023-04-28T03:58:23;101276.42;;;1.33;66.92
75555;BME280;66087;53.126;17.960;2023-04-28T04:00:50;101282.02;;;1.36;66.74
75555;BME280;66087;53.126;17.960;2023-04-28T04:03:16;101286.99;;;1.40;66.77
75555;BME280;66087;53.126;17.960;2023-04-28T04:05:42;101291.59;;;1.44;66.61
75555;BME280;66087;53.126;17.960;2023-04-28T04:08:08;101287.21;;;1.46;66.43
75555;BME280;66087;53.126;17.960;2023-04-28T04:10:35;101293.50;;;1.51;66.54
75555;BME280;66087;53.126;17.960;2023-04-28T04:13:01;101290.77;;;1.56;66.49
75555;BME280;66087;53.126;17.960;2023-04-28T04:15:27;101295.31;;;1.60;66.73
75555;BME280;66087;53.126;17.960;2023-04-28T04:17:53;101298.02;;;1.63;66.45
75555;BME280;66087;53.126;17.960;2023-04-28T04:20:20;101295.73;;;1.65;66.67
75555;BME280;66087;53.126;17.960;2023-04-28T04:22:46;101299.96;;;1.68;66.55
75555;BME280;66087;53.126;17.960;2023-04-28T04:25:13;101303.02;;;1.72;66.48
75555;BME280;66087;53.126;17.960;2023-04-28T04:27:39;101299.68;;;1.75;66.72
75555;BME280;66087;53.126;17.960;2023-04-28T04:30:06;101301.30;;;1.76;66.76
75555;BME280;66087;53.126;17.960;2023-04-28T04:32:32;101302.37;;;1.78;66.87
75555;BME280;66087;53.126;17.960;2023-04-28T04:34:59;101303.23;;;1.81;67.04
75555;BME280;66087;53.126;17.960;2023-04-28T04:37:26;101301.06;;;1.84;66.95
75555;BME280;66087;53.126;17.960;2023-04-28T04:39:57;101302.85;;;1.87;66.97
75555;BME280;66087;53.126;17.960;2023-04-28T04:42:47;101302.94;;;1.93;67.05
75555;BME280;66087;53.126;17.960;2023-04-28T04:45:17;101303.68;;;1.97;67.06
75555;BME280;66087;53.126;17.960;2023-04-28T04:47:43;101305.23;;;1.99;67.12
75555;BME280;66087;53.126;17.960;2023-04-28T04:50:10;101307.67;;;2.07;67.28
75555;BME280;66087;53.126;17.960;2023-04-28T04:52:37;101309.61;;;2.15;67.03
75555;BME280;66087;53.126;17.960;2023-04-28T04:55:04;101307.15;;;2.24;66.92
75555;BME280;66087;53.126;17.960;2023-04-28T04:57:31;101304.07;;;2.36;66.68
75555;BME280;66087;53.126;17.960;2023-04-28T05:00:08;101298.16;;;2.48;66.38
75555;BME280;66087;53.126;17.960;2023-04-28T05:02:35;101307.13;;;2.63;66.26
75555;BME280;66087;53.126;17.960;2023-04-28T05:05:02;101308.42;;;2.76;66.09
75555;BME280;66087;53.126;17.960;2023-04-28T05:07:28;101307.92;;;2.85;65.91
75555;BME280;66087;53.126;17.960;2023-04-28T05:09:54;101307.36;;;2.92;65.78
75555;BME280;66087;53.126;17.960;2023-04-28T05:12:20;101303.27;;;2.98;65.96
75555;BME280;66087;53.126;17.960;2023-04-28T05:14:46;101304.03;;;3.05;65.77
75555;BME280;66087;53.126;17.960;2023-04-28T05:17:12;101306.27;;;3.13;65.65
75555;BME280;66087;53.126;17.960;2023-04-28T05:19:40;101306.42;;;3.21;65.52
75555;BME280;66087;53.126;17.960;2023-04-28T05:22:06;101310.26;;;3.29;65.47
75555;BME280;66087;53.126;17.960;2023-04-28T05:24:34;101310.50;;;3.38;65.54
75555;BME280;66087;53.126;17.960;2023-04-28T05:27:01;101305.65;;;3.49;65.23
75555;BME280;66087;53.126;17.960;2023-04-28T05:29:27;101307.39;;;3.60;65.19
75555;BME280;66087;53.126;17.960;2023-04-28T05:31:53;101306.21;;;3.74;64.90
75555;BME280;66087;53.126;17.960;2023-04-28T05:34:21;101304.54;;;3.87;64.69
75555;BME280;66087;53.126;17.960;2023-04-28T05:36:47;101302.13;;;3.98;64.45
75555;BME280;66087;53.126;17.960;2023-04-28T05:39:13;101305.27;;;4.10;64.37
75555;BME280;66087;53.126;17.960;2023-04-28T05:41:40;101305.10;;;4.23;64.13
75555;BME280;66087;53.126;17.960;2023-04-28T05:44:06;101302.81;;;4.33;63.75
75555;BME280;66087;53.126;17.960;2023-04-28T05:46:36;101302.02;;;4.46;63.75
75555;BME280;66087;53.126;17.960;2023-04-28T05:49:03;101299.69;;;4.59;63.69
75555;BME280;66087;53.126;17.960;2023-04-28T05:51:32;101301.78;;;4.74;63.63
75555;BME280;66087;53.126;17.960;2023-04-28T05:53:59;101305.48;;;4.87;63.29
75555;BME280;66087;53.126;17.960;2023-04-28T05:56:26;101306.94;;;5.03;63.12
75555;BME280;66087;53.126;17.960;2023-04-28T05:58:52;101308.08;;;5.14;62.93
75555;BME280;66087;53.126;17.960;2023-04-28T06:01:21;101307.95;;;5.23;62.83
75555;BME280;66087;53.126;17.960;2023-04-28T06:03:49;101313.27;;;5.35;62.36
75555;BME280;66087;53.126;17.960;2023-04-28T06:06:15;101311.91;;;5.49;61.94
75555;BME280;66087;53.126;17.960;2023-04-28T06:08:44;101310.55;;;5.63;61.29
75555;BME280;66087;53.126;17.960;2023-04-28T06:11:12;101310.70;;;5.76;61.33
75555;BME280;66087;53.126;17.960;2023-04-28T06:13:38;101312.13;;;5.89;61.04
75555;BME280;66087;53.126;17.960;2023-04-28T06:16:05;101312.03;;;6.03;60.72
75555;BME280;66087;53.126;17.960;2023-04-28T06:18:33;101309.81;;;6.14;60.50
75555;BME280;66087;53.126;17.960;2023-04-28T06:21:00;101312.60;;;6.24;59.98
75555;BME280;66087;53.126;17.960;2023-04-28T06:23:26;101312.90;;;6.34;59.87
75555;BME280;66087;53.126;17.960;2023-04-28T06:25:53;101314.34;;;6.42;59.46
75555;BME280;66087;53.126;17.960;2023-04-28T06:28:19;101314.16;;;6.51;59.38
75555;BME280;66087;53.126;17.960;2023-04-28T06:30:45;101314.30;;;6.60;59.08
75555;BME280;66087;53.126;17.960;2023-04-28T06:33:12;101315.45;;;6.71;58.68
75555;BME280;66087;53.126;17.960;2023-04-28T06:35:39;101315.13;;;6.82;58.77
75555;BME280;66087;53.126;17.960;2023-04-28T06:38:05;101309.09;;;6.92;58.53
75555;BME280;66087;53.126;17.960;2023-04-28T06:40:33;101302.64;;;7.01;58.04
75555;BME280;66087;53.126;17.960;2023-04-28T06:43:02;101301.27;;;7.11;58.03
75555;BME280;66087;53.126;17.960;2023-04-28T06:45:34;101301.09;;;7.22;57.71
75555;BME280;66087;53.126;17.960;2023-04-28T06:48:00;101299.12;;;7.31;57.11
75555;BME280;66087;53.126;17.960;2023-04-28T06:50:27;101298.74;;;7.40;57.03
75555;BME280;66087;53.126;17.960;2023-04-28T06:52:53;101298.91;;;7.49;56.98
75555;BME280;66087;53.126;17.960;2023-04-28T06:55:20;101300.09;;;7.58;56.53
75555;BME280;66087;53.126;17.960;2023-04-28T06:57:46;101299.16;;;7.66;56.38
75555;BME280;66087;53.126;17.960;2023-04-28T07:00:14;101295.23;;;7.75;55.92
75555;BME280;66087;53.126;17.960;2023-04-28T07:02:41;101295.24;;;7.84;55.73
75555;BME280;66087;53.126;17.960;2023-04-28T07:05:07;101294.16;;;7.94;55.66
75555;BME280;66087;53.126;17.960;2023-04-28T07:07:35;101289.91;;;8.05;54.82
75555;BME280;66087;53.126;17.960;2023-04-28T07:10:04;101291.75;;;8.13;54.16
75555;BME280;66087;53.126;17.960;2023-04-28T07:12:30;101281.00;;;8.24;53.59
75555;BME280;66087;53.126;17.960;2023-04-28T07:14:56;101278.61;;;8.35;53.78
75555;BME280;66087;53.126;17.960;2023-04-28T07:17:22;101277.45;;;8.45;53.36
75555;BME280;66087;53.126;17.960;2023-04-28T07:19:48;101275.55;;;8.55;52.78
75555;BME280;66087;53.126;17.960;2023-04-28T07:22:16;101273.52;;;8.63;53.20
75555;BME280;66087;53.126;17.960;2023-04-28T07:24:43;101269.52;;;8.70;52.70
75555;BME280;66087;53.126;17.960;2023-04-28T07:27:10;101267.77;;;8.76;52.01
75555;BME280;66087;53.126;17.960;2023-04-28T07:29:36;101266.64;;;8.82;51.05
75555;BME280;66087;53.126;17.960;2023-04-28T07:32:05;101258.52;;;8.86;51.65
75555;BME280;66087;53.126;17.960;2023-04-28T07:34:39;101252.19;;;8.92;51.03
75555;BME280;66087;53.126;17.960;2023-04-28T07:37:06;101255.40;;;9.02;50.21
75555;BME280;66087;53.126;17.960;2023-04-28T07:39:33;101253.48;;;9.08;49.81
75555;BME280;66087;53.126;17.960;2023-04-28T07:42:02;101253.66;;;9.17;49.11
75555;BME280;66087;53.126;17.960;2023-04-28T07:44:29;101254.85;;;9.24;48.61
75555;BME280;66087;53.126;17.960;2023-04-28T07:46:55;101256.88;;;9.29;47.66
75555;BME280;66087;53.126;17.960;2023-04-28T07:49:22;101252.85;;;9.33;46.89
75555;BME280;66087;53.126;17.960;2023-04-28T07:52:07;101254.80;;;9.36;48.36
75555;BME280;66087;53.126;17.960;2023-04-28T07:54:34;101254.19;;;9.48;47.27
75555;BME280;66087;53.126;17.960;2023-04-28T07:57:01;101248.00;;;9.58;47.18
75555;BME280;66087;53.126;17.960;2023-04-28T07:59:32;101247.38;;;9.69;47.34
75555;BME280;66087;53.126;17.960;2023-04-28T08:01:59;101247.48;;;9.84;44.64
75555;BME280;66087;53.126;17.960;2023-04-28T08:04:25;101245.83;;;10.04;44.32
75555;BME280;66087;53.126;17.960;2023-04-28T08:06:52;101246.59;;;10.27;43.25
75555;BME280;66087;53.126;17.960;2023-04-28T08:09:18;101246.64;;;10.44;43.33
75555;BME280;66087;53.126;17.960;2023-04-28T08:11:45;101240.61;;;10.56;42.74
75555;BME280;66087;53.126;17.960;2023-04-28T08:14:11;101234.29;;;10.67;42.56
75555;BME280;66087;53.126;17.960;2023-04-28T08:16:37;101237.48;;;10.83;42.52
75555;BME280;66087;53.126;17.960;2023-04-28T08:19:06;101235.84;;;11.00;43.08
75555;BME280;66087;53.126;17.960;2023-04-28T08:21:32;101231.63;;;11.18;42.55
75555;BME280;66087;53.126;17.960;2023-04-28T08:23:59;101229.02;;;11.37;42.60
75555;BME280;66087;53.126;17.960;2023-04-28T08:26:31;101228.83;;;11.52;42.22
75555;BME280;66087;53.126;17.960;2023-04-28T08:28:58;101228.60;;;11.63;42.13
75555;BME280;66087;53.126;17.960;2023-04-28T08:31:25;101227.08;;;11.68;41.74
75555;BME280;66087;53.126;17.960;2023-04-28T08:33:51;101217.45;;;11.65;41.75
75555;BME280;66087;53.126;17.960;2023-04-28T08:36:17;101218.13;;;11.71;41.41
75555;BME280;66087;53.126;17.960;2023-04-28T08:38:44;101214.77;;;11.72;41.45
75555;BME280;66087;53.126;17.960;2023-04-28T08:41:14;101206.81;;;11.62;41.44
75555;BME280;66087;53.126;17.960;2023-04-28T08:43:40;101211.90;;;11.58;41.22
75555;BME280;66087;53.126;17.960;2023-04-28T08:46:09;101213.66;;;11.52;40.91
75555;BME280;66087;53.126;17.960;2023-04-28T08:48:40;101208.77;;;11.50;42.00
75555;BME280;66087;53.126;17.960;2023-04-28T08:51:08;101207.50;;;11.54;40.94
75555;BME280;66087;53.126;17.960;2023-04-28T08:53:37;101204.98;;;11.58;41.30
75555;BME280;66087;53.126;17.960;2023-04-28T08:56:05;101201.38;;;11.60;41.15
75555;BME280;66087;53.126;17.960;2023-04-28T08:58:35;101194.58;;;11.64;40.77
75555;BME280;66087;53.126;17.960;2023-04-28T09:01:02;101193.83;;;11.71;40.85
75555;BME280;66087;53.126;17.960;2023-04-28T09:03:30;101190.17;;;11.70;40.45
75555;BME280;66087;53.126;17.960;2023-04-28T09:05:57;101194.13;;;11.74;40.34
75555;BME280;66087;53.126;17.960;2023-04-28T09:08:23;101191.91;;;11.78;40.27
75555;BME280;66087;53.126;17.960;2023-04-28T09:13:37;101188.30;;;11.81;39.27
75555;BME280;66087;53.126;17.960;2023-04-28T09:16:03;101187.78;;;11.78;39.14
75555;BME280;66087;53.126;17.960;2023-04-28T09:18:31;101181.71;;;11.79;38.82
75555;BME280;66087;53.126;17.960;2023-04-28T09:21:07;101181.04;;;11.77;38.88
75555;BME280;66087;53.126;17.960;2023-04-28T09:23:47;101174.53;;;11.81;38.70
75555;BME280;66087;53.126;17.960;2023-04-28T09:26:14;101173.90;;;11.98;38.67
75555;BME280;66087;53.126;17.960;2023-04-28T09:28:40;101179.86;;;12.15;37.75
75555;BME280;66087;53.126;17.960;2023-04-28T09:31:21;101172.45;;;12.31;37.61
75555;BME280;66087;53.126;17.960;2023-04-28T09:34:06;101168.37;;;12.52;37.57
75555;BME280;66087;53.126;17.960;2023-04-28T09:36:37;101170.41;;;12.58;37.05
75555;BME280;66087;53.126;17.960;2023-04-28T09:39:05;101168.05;;;12.60;37.24
75555;BME280;66087;53.126;17.960;2023-04-28T09:41:41;101163.60;;;12.78;37.26
75555;BME280;66087;53.126;17.960;2023-04-28T09:44:21;101161.67;;;12.82;36.75
75555;BME280;66087;53.126;17.960;2023-04-28T09:46:49;101158.91;;;12.74;37.11
75555;BME280;66087;53.126;17.960;2023-04-28T09:49:15;101155.80;;;12.60;37.31
75555;BME280;66087;53.126;17.960;2023-04-28T09:51:41;101155.86;;;12.56;37.33
75555;BME280;66087;53.126;17.960;2023-04-28T09:54:07;101154.41;;;12.59;36.78
75555;BME280;66087;53.126;17.960;2023-04-28T09:56:35;101150.36;;;12.52;36.37
75555;BME280;66087;53.126;17.960;2023-04-28T09:59:03;101149.60;;;12.51;36.60
75555;BME280;66087;53.126;17.960;2023-04-28T10:01:39;101147.90;;;12.56;36.34
75555;BME280;66087;53.126;17.960;2023-04-28T10:04:06;101144.89;;;12.73;36.16
